sensor_id;sensor_type;location;lat;lon;timestamp;temperature;humidity
19734;DHT22;10018;51.230;7.860;2023-04-01T00:01:00;9.40;99.90
19734;DHT22;10018;51.230;7.860;2023-04-01T00:03:26;9.40;99.90
19734;DHT22;10018;51.230;7.860;2023-04-01T00:05:53;9.40;99.90
19734;DHT22;10018;51.230;7.860;2023-04-01T00:08:19;9.30;99.90
19734;DHT22;10018;51.230;7.860;2023-04-01T00:10:45;9.30;99.90
19734;DHT22;10018;51.230;7.860;2023-04-01T00:13:11;9.40;99.90
19734;DHT22;10018;51.230;7.860;2023-04-01T00:15:37;9.40;99.90
19734;DHT22;10018;51.230;7.860;2023-04-01T00:18:03;9.30;99.90
19734;DHT22;10018;51.230;7.860;2023-04-01T00:20:31;9.30;99.90
19734;DHT22;10018;51.230;7.860;2023-04-01T00:22:57;9.30;99.90
19734;DHT22;10018;51.230;7.860;2023-04-01T00:25:23;9.30;99.90
19734;DHT22;10018;51.230;7.860;2023-04-01T00:27:48;9.20;99.90
19734;DHT22;10018;51.230;7.860;2023-04-01T00:30:14;9.30;99.90
19734;DHT22;10018;51.230;7.860;2023-04-01T00:32:40;9.30;99.90
19734;DHT22;10018;51.230;7.860;2023-04-01T00:35:06;9.20;99.90
19734;DHT22;10018;51.230;7.860;2023-04-01T00:37:36;9.20;99.90
19734;DHT22;10018;51.230;7.860;2023-04-01T00:40:04;9.20;99.90
19734;DHT22;10018;51.230;7.860;2023-04-01T00:42:30;9.20;99.90
19734;DHT22;10018;51.230;7.860;2023-04-01T00:44:56;9.20;99.90
19734;DHT22;10018;51.230;7.860;2023-04-01T00:47:23;9.20;99.90
19734;DHT22;10018;51.230;7.860;2023-04-01T00:49:52;9.20;99.90
19734;DHT22;10018;51.230;7.860;2023-04-01T00:52:23;9.20;99.90
19734;DHT22;10018;51.230;7.860;2023-04-01T00:54:55;9.20;99.90
19734;DHT22;10018;51.230;7.860;2023-04-01T00:57:34;9.20;99.90
19734;DHT22;10018;51.230;7.860;2023-04-01T01:00:00;9.20;99.90
19734;DHT22;10018;51.230;7.860;2023-04-01T01:02:25;9.20;99.90
19734;DHT22;10018;51.230;7.860;2023-04-01T01:04:51;9.10;99.90
19734;DHT22;10018;51.230;7.860;2023-04-01T01:36:58;9.10;99.90
19734;DHT22;10018;51.230;7.860;2023-04-01T01:39:27;9.10;99.90
19734;DHT22;10018;51.230;7.860;2023-04-01T01:41:56;9.10;99.90
19734;DHT22;10018;51.230;7.860;2023-04-01T01:44:25;9.20;99.90
19734;DHT22;10018;51.230;7.860;2023-04-01T01:46:52;9.20;99.90
19734;DHT22;10018;51.230;7.860;2023-04-01T01:49:18;9.00;99.90
19734;DHT22;10018;51.230;7.860;2023-04-01T01:51:46;9.00;99.90
19734;DHT22;10018;51.230;7.860;2023-04-01T01:54:14;9.10;99.90
19734;DHT22;10018;51.230;7.860;2023-04-01T01:56:42;9.10;99.90
19734;DHT22;10018;51.230;7.860;2023-04-01T01:59:11;9.10;99.90
19734;DHT22;10018;51.230;7.860;2023-04-01T02:01:41;9.10;99.90
19734;DHT22;10018;51.230;7.860;2023-04-01T02:04:08;9.10;99.90
19734;DHT22;10018;51.230;7.860;2023-04-01T02:06:39;9.10;99.90
19734;DHT22;10018;51.230;7.860;2023-04-01T02:09:08;9.10;99.90
19734;DHT22;10018;51.230;7.860;2023-04-01T02:11:37;9.10;99.90
19734;DHT22;10018;51.230;7.860;2023-04-01T02:14:17;9.10;99.90
19734;DHT22;10018;51.230;7.860;2023-04-01T02:19:12;9.10;99.90
19734;DHT22;10018;51.230;7.860;2023-04-01T02:21:39;9.00;99.90
19734;DHT22;10018;51.230;7.860;2023-04-01T02:24:11;9.10;99.90
19734;DHT22;10018;51.230;7.860;2023-04-01T02:26:38;9.20;99.90
19734;DHT22;10018;51.230;7.860;2023-04-01T02:29:05;9.10;99.90
19734;DHT22;10018;51.230;7.860;2023-04-01T02:31:32;9.00;99.90
19734;DHT22;10018;51.230;7.860;2023-04-01T02:33:58;9.00;99.90
19734;DHT22;10018;51.230;7.860;2023-04-01T02:36:24;9.00;99.90
19734;DHT22;10018;51.230;7.860;2023-04-01T02:38:51;9.00;99.90
19734;DHT22;10018;51.230;7.860;2023-04-01T02:41:17;8.90;99.90
19734;DHT22;10018;51.230;7.860;2023-04-01T02:43:45;8.90;99.90
19734;DHT22;10018;51.230;7.860;2023-04-01T02:46:11;8.90;99.90
19734;DHT22;10018;51.230;7.860;2023-04-01T02:48:36;8.90;99.90
19734;DHT22;10018;51.230;7.860;2023-04-01T02:51:02;9.00;99.90
19734;DHT22;10018;51.230;7.860;2023-04-01T02:53:29;9.00;99.90
19734;DHT22;10018;51.230;7.860;2023-04-01T02:55:54;9.00;99.90
19734;DHT22;10018;51.230;7.860;2023-04-01T02:58:21;9.00;99.90
19734;DHT22;10018;51.230;7.860;2023-04-01T03:00:47;9.00;99.90
19734;DHT22;10018;51.230;7.860;2023-04-01T03:03:12;8.90;99.90
19734;DHT22;10018;51.230;7.860;2023-04-01T03:05:39;9.00;99.90
19734;DHT22;10018;51.230;7.860;2023-04-01T03:08:05;9.00;99.90
19734;DHT22;10018;51.230;7.860;2023-04-01T03:10:31;9.00;99.90
19734;DHT22;10018;51.230;7.860;2023-04-01T03:12:57;9.00;99.90
19734;DHT22;10018;51.230;7.860;2023-04-01T03:15:22;9.00;99.90
19734;DHT22;10018;51.230;7.860;2023-04-01T03:17:48;9.10;99.90
19734;DHT22;10018;51.230;7.860;2023-04-01T03:20:15;9.10;99.90
19734;DHT22;10018;51.230;7.860;2023-04-01T03:22:41;9.10;99.90
19734;DHT22;10018;51.230;7.860;2023-04-01T03:25:07;9.00;99.90
19734;DHT22;10018;51.230;7.860;2023-04-01T03:27:34;9.00;99.90
19734;DHT22;10018;51.230;7.860;2023-04-01T03:30:01;9.00;99.90
19734;DHT22;10018;51.230;7.860;2023-04-01T03:32:26;9.00;99.90
19734;DHT22;10018;51.230;7.860;2023-04-01T03:34:53;8.90;99.90
19734;DHT22;10018;51.230;7.860;2023-04-01T03:37:18;8.90;99.90
19734;DHT22;10018;51.230;7.860;2023-04-01T03:39:44;8.90;99.90
19734;DHT22;10018;51.230;7.860;2023-04-01T03:42:10;8.90;99.90
19734;DHT22;10018;51.230;7.860;2023-04-01T03:44:38;8.90;99.90
19734;DHT22;10018;51.230;7.860;2023-04-01T03:47:04;8.90;99.90
19734;DHT22;10018;51.230;7.860;2023-04-01T03:49:30;8.90;99.90
19734;DHT22;10018;51.230;7.860;2023-04-01T03:51:58;8.80;99.90
19734;DHT22;10018;51.230;7.860;2023-04-01T03:54:24;8.80;99.90
19734;DHT22;10018;51.230;7.860;2023-04-01T03:56:49;8.80;99.90
19734;DHT22;10018;51.230;7.860;2023-04-01T03:59:15;8.80;99.90
19734;DHT22;10018;51.230;7.860;2023-04-01T04:01:43;8.80;99.90
19734;DHT22;10018;51.230;7.860;2023-04-01T04:04:11;8.80;99.90
19734;DHT22;10018;51.230;7.860;2023-04-01T04:06:38;8.80;99.90
19734;DHT22;10018;51.230;7.860;2023-04-01T04:09:04;8.80;99.90
19734;DHT22;10018;51.230;7.860;2023-04-01T04:11:30;8.80;99.90
19734;DHT22;10018;51.230;7.860;2023-04-01T04:13:56;8.70;99.90
19734;DHT22;10018;51.230;7.860;2023-04-01T04:16:22;8.70;99.90
19734;DHT22;10018;51.230;7.860;2023-04-01T04:18:47;8.70;99.90
19734;DHT22;10018;51.230;7.860;2023-04-01T04:21:14;8.70;99.90
19734;DHT22;10018;51.230;7.860;2023-04-01T04:23:41;8.70;99.90
19734;DHT22;10018;51.230;7.860;2023-04-01T04:26:09;8.70;99.90
19734;DHT22;10018;51.230;7.860;2023-04-01T04:28:36;8.70;99.90
19734;DHT22;10018;51.230;7.860;2023-04-01T04:31:01;8.60;99.90
19734;DHT22;10018;51.230;7.860;2023-04-01T04:33:28;8.70;99.90
19734;DHT22;10018;51.230;7.860;2023-04-01T04:35:57;8.70;99.90
19734;DHT22;10018;51.230;7.860;2023-04-01T04:38:24;8.70;99.90
19734;DHT22;10018;51.230;7.860;2023-04-01T04:40:49;8.70;99.90
19734;DHT22;10018;51.230;7.860;2023-04-01T04:43:17;8.60;99.90
19734;DHT22;10018;51.230;7.860;2023-04-01T04:45:43;8.70;99.90
19734;DHT22;10018;51.230;7.860;2023-04-01T04:48:11;8.70;99.90
19734;DHT22;10018;51.230;7.860;2023-04-01T04:50:41;8.70;99.90
19734;DHT22;10018;51.230;7.860;2023-04-01T04:53:09;8.70;99.90
19734;DHT22;10018;51.230;7.860;2023-04-01T04:55:35;8.70;99.90
19734;DHT22;10018;51.230;7.860;2023-04-01T04:58:01;8.70;99.90
19734;DHT22;10018;51.230;7.860;2023-04-01T05:00:26;8.70;99.90
19734;DHT22;10018;51.230;7.860;2023-04-01T05:02:52;8.70;99.90
19734;DHT22;10018;51.230;7.860;2023-04-01T05:05:18;8.70;99.90
19734;DHT22;10018;51.230;7.860;2023-04-01T05:07:46;8.70;99.90
19734;DHT22;10018;51.230;7.860;2023-04-01T05:10:11;8.70;99.90
19734;DHT22;10018;51.230;7.860;2023-04-01T05:12:37;8.70;99.90
19734;DHT22;10018;51.230;7.860;2023-04-01T05:15:07;8.70;99.90
19734;DHT22;10018;51.230;7.860;2023-04-01T05:17:33;8.70;99.90
19734;DHT22;10018;51.230;7.860;2023-04-01T05:19:58;8.70;99.90
19734;DHT22;10018;51.230;7.860;2023-04-01T05:22:24;8.70;99.90
19734;DHT22;10018;51.230;7.860;2023-04-01T05:24:50;8.70;99.90
19734;DHT22;10018;51.230;7.860;2023-04-01T05:27:16;8.70;99.90
19734;DHT22;10018;51.230;7.860;2023-04-01T05:29:42;8.70;99.90
19734;DHT22;10018;51.230;7.860;2023-04-01T05:32:09;8.80;99.90
19734;DHT22;10018;51.230;7.860;2023-04-01T05:34:35;8.70;99.90
19734;DHT22;10018;51.230;7.860;2023-04-01T05:37:03;8.70;99.90
19734;DHT22;10018;51.230;7.860;2023-04-01T05:39:31;8.70;99.90
19734;DHT22;10018;51.230;7.860;2023-04-01T05:41:56;8.70;99.90
19734;DHT22;10018;51.230;7.860;2023-04-01T05:44:22;8.70;99.90
19734;DHT22;10018;51.230;7.860;2023-04-01T05:46:50;8.80;99.90
19734;DHT22;10018;51.230;7.860;2023-04-01T05:49:15;8.80;99.90
19734;DHT22;10018;51.230;7.860;2023-04-01T05:51:41;8.80;99.90
19734;DHT22;10018;51.230;7.860;2023-04-01T05:54:06;8.80;99.90
19734;DHT22;10018;51.230;7.860;2023-04-01T05:56:32;8.70;99.90
19734;DHT22;10018;51.230;7.860;2023-04-01T05:58:57;8.80;99.90
19734;DHT22;10018;51.230;7.860;2023-04-01T06:01:23;8.80;99.90
19734;DHT22;10018;51.230;7.860;2023-04-01T06:03:49;8.80;99.90
19734;DHT22;10018;51.230;7.860;2023-04-01T06:06:26;8.80;99.90
19734;DHT22;10018;51.230;7.860;2023-04-01T06:08:53;8.80;99.90
19734;DHT22;10018;51.230;7.860;2023-04-01T06:11:22;8.80;99.90
19734;DHT22;10018;51.230;7.860;2023-04-01T06:14:07;8.80;99.90
19734;DHT22;10018;51.230;7.860;2023-04-01T06:23:09;8.90;99.90
19734;DHT22;10018;51.230;7.860;2023-04-01T06:31:03;9.00;99.90
19734;DHT22;10018;51.230;7.860;2023-04-01T06:36:15;9.10;99.90
19734;DHT22;10018;51.230;7.860;2023-04-01T06:46:47;9.30;99.90
19734;DHT22;10018;51.230;7.860;2023-04-01T06:54:34;9.50;99.90
19734;DHT22;10018;51.230;7.860;2023-04-01T06:57:27;9.50;99.90
19734;DHT22;10018;51.230;7.860;2023-04-01T06:59:55;9.50;99.90
19734;DHT22;10018;51.230;7.860;2023-04-01T07:02:39;9.60;99.90
19734;DHT22;10018;51.230;7.860;2023-04-01T07:05:07;9.60;99.90
19734;DHT22;10018;51.230;7.860;2023-04-01T07:07:43;9.60;99.90
19734;DHT22;10018;51.230;7.860;2023-04-01T07:10:19;9.60;99.90
19734;DHT22;10018;51.230;7.860;2023-04-01T07:12:58;9.60;99.90
19734;DHT22;10018;51.230;7.860;2023-04-01T07:15:33;9.60;99.90
19734;DHT22;10018;51.230;7.860;2023-04-01T07:18:15;9.60;99.90
19734;DHT22;10018;51.230;7.860;2023-04-01T07:20:42;9.70;99.90
19734;DHT22;10018;51.230;7.860;2023-04-01T07:23:21;9.60;99.90
19734;DHT22;10018;51.230;7.860;2023-04-01T07:25:52;9.60;99.90
19734;DHT22;10018;51.230;7.860;2023-04-01T07:28:20;9.70;99.90
19734;DHT22;10018;51.230;7.860;2023-04-01T07:33:21;9.70;99.90
19734;DHT22;10018;51.230;7.860;2023-04-01T07:35:59;9.80;99.90
19734;DHT22;10018;51.230;7.860;2023-04-01T07:41:44;9.70;99.90
19734;DHT22;10018;51.230;7.860;2023-04-01T07:44:16;9.80;99.90
19734;DHT22;10018;51.230;7.860;2023-04-01T07:47:16;9.80;99.90
19734;DHT22;10018;51.230;7.860;2023-04-01T07:58:14;10.10;99.90
19734;DHT22;10018;51.230;7.860;2023-04-01T08:00:51;10.00;99.90
19734;DHT22;10018;51.230;7.860;2023-04-01T08:03:36;10.00;99.90
19734;DHT22;10018;51.230;7.860;2023-04-01T08:06:16;10.10;99.90
19734;DHT22;10018;51.230;7.860;2023-04-01T08:08:56;10.20;99.90
19734;DHT22;10018;51.230;7.860;2023-04-01T08:11:40;10.20;99.90
19734;DHT22;10018;51.230;7.860;2023-04-01T08:14:16;10.20;99.90
19734;DHT22;10018;51.230;7.860;2023-04-01T08:22:11;10.00;99.90
19734;DHT22;10018;51.230;7.860;2023-04-01T08:24:44;10.00;99.90
19734;DHT22;10018;51.230;7.860;2023-04-01T08:29:57;10.00;99.90
19734;DHT22;10018;51.230;7.860;2023-04-01T08:32:38;9.90;99.90
19734;DHT22;10018;51.230;7.860;2023-04-01T08:35:24;10.00;99.90
19734;DHT22;10018;51.230;7.860;2023-04-01T08:37:53;9.90;99.90
19734;DHT22;10018;51.230;7.860;2023-04-01T08:40:35;10.00;99.90
19734;DHT22;10018;51.230;7.860;2023-04-01T09:07:40;10.40;99.90
19734;DHT22;10018;51.230;7.860;2023-04-01T09:13:02;10.50;99.90
19734;DHT22;10018;51.230;7.860;2023-04-01T09:24:33;10.70;99.90
19734;DHT22;10018;51.230;7.860;2023-04-01T09:30:23;10.70;99.90
19734;DHT22;10018;51.230;7.860;2023-04-01T09:36:02;10.70;99.90
19734;DHT22;10018;51.230;7.860;2023-04-01T09:38:59;10.60;99.90
19734;DHT22;10018;51.230;7.860;2023-04-01T09:41:36;10.60;99.90
19734;DHT22;10018;51.230;7.860;2023-04-01T09:44:37;10.60;99.90
19734;DHT22;10018;51.230;7.860;2023-04-01T10:00:50;10.90;99.90
19734;DHT22;10018;51.230;7.860;2023-04-01T10:04:02;11.00;99.90
19734;DHT22;10018;51.230;7.860;2023-04-01T10:12:36;10.90;99.90
19734;DHT22;10018;51.230;7.860;2023-04-01T10:34:50;11.00;99.90
19734;DHT22;10018;51.230;7.860;2023-04-01T11:16:46;11.10;99.90
19734;DHT22;10018;51.230;7.860;2023-04-01T11:19:27;11.30;99.90
19734;DHT22;10018;51.230;7.860;2023-04-01T11:38:18;11.10;99.90
19734;DHT22;10018;51.230;7.860;2023-04-01T11:41:10;11.10;99.90
19734;DHT22;10018;51.230;7.860;2023-04-01T11:44:17;11.10;99.90
19734;DHT22;10018;51.230;7.860;2023-04-01T11:55:23;11.00;99.90
19734;DHT22;10018;51.230;7.860;2023-04-01T12:09:16;11.30;99.90
19734;DHT22;10018;51.230;7.860;2023-04-01T12:31:42;11.30;99.90
19734;DHT22;10018;51.230;7.860;2023-04-01T12:40:24;11.20;99.90
19734;DHT22;10018;51.230;7.860;2023-04-01T12:45:33;11.10;99.90
19734;DHT22;10018;51.230;7.860;2023-04-01T12:51:23;11.00;99.90
19734;DHT22;10018;51.230;7.860;2023-04-01T12:57:10;10.90;99.90
19734;DHT22;10018;51.230;7.860;2023-04-01T13:00:12;11.00;99.90
19734;DHT22;10018;51.230;7.860;2023-04-01T13:03:06;11.10;99.90
19734;DHT22;10018;51.230;7.860;2023-04-01T13:08:37;11.30;99.90
19734;DHT22;10018;51.230;7.860;2023-04-01T13:14:10;11.30;99.90
19734;DHT22;10018;51.230;7.860;2023-04-01T13:24:51;11.20;99.90
19734;DHT22;10018;51.230;7.860;2023-04-01T13:27:41;11.10;99.90
19734;DHT22;10018;51.230;7.860;2023-04-01T13:30:34;11.10;99.90
19734;DHT22;10018;51.230;7.860;2023-04-01T13:38:52;10.90;99.90
19734;DHT22;10018;51.230;7.860;2023-04-01T14:09:08;11.00;99.90
19734;DHT22;10018;51.230;7.860;2023-04-01T14:17:33;11.10;99.90
19734;DHT22;10018;51.230;7.860;2023-04-01T14:26:02;11.10;99.90
19734;DHT22;10018;51.230;7.860;2023-04-01T14:34:43;11.30;99.90
19734;DHT22;10018;51.230;7.860;2023-04-01T14:37:29;11.30;99.90
19734;DHT22;10018;51.230;7.860;2023-04-01T14:48:53;11.00;99.90
19734;DHT22;10018;51.230;7.860;2023-04-01T14:51:31;11.00;99.90
19734;DHT22;10018;51.230;7.860;2023-04-01T14:56:43;11.20;99.90
19734;DHT22;10018;51.230;7.860;2023-04-01T15:01:53;11.20;99.90
19734;DHT22;10018;51.230;7.860;2023-04-01T15:05:01;11.10;99.90
19734;DHT22;10018;51.230;7.860;2023-04-01T15:16:16;11.10;99.90
19734;DHT22;10018;51.230;7.860;2023-04-01T15:19:05;11.10;99.90
19734;DHT22;10018;51.230;7.860;2023-04-01T15:32:39;11.10;99.90
19734;DHT22;10018;51.230;7.860;2023-04-01T15:43:49;11.00;99.90
19734;DHT22;10018;51.230;7.860;2023-04-01T15:46:46;10.90;99.90
19734;DHT22;10018;51.230;7.860;2023-04-01T15:49:41;10.90;99.90
19734;DHT22;10018;51.230;7.860;2023-04-01T15:58:40;10.70;99.90
19734;DHT22;10018;51.230;7.860;2023-04-01T16:01:32;10.70;99.90
19734;DHT22;10018;51.230;7.860;2023-04-01T16:04:06;10.70;99.90
19734;DHT22;10018;51.230;7.860;2023-04-01T16:06:56;10.60;99.90
19734;DHT22;10018;51.230;7.860;2023-04-01T16:14:49;10.70;99.90
19734;DHT22;10018;51.230;7.860;2023-04-01T16:22:38;10.60;99.90
19734;DHT22;10018;51.230;7.860;2023-04-01T16:27:54;10.50;99.90
19734;DHT22;10018;51.230;7.860;2023-04-01T16:33:04;10.50;99.90
19734;DHT22;10018;51.230;7.860;2023-04-01T16:35:58;10.50;99.90
19734;DHT22;10018;51.230;7.860;2023-04-01T16:38:38;10.40;99.90
19734;DHT22;10018;51.230;7.860;2023-04-01T16:41:17;10.40;99.90
19734;DHT22;10018;51.230;7.860;2023-04-01T16:43:49;10.40;99.90
19734;DHT22;10018;51.230;7.860;2023-04-01T16:52:04;10.40;99.90
19734;DHT22;10018;51.230;7.860;2023-04-01T16:54:58;10.40;99.90
19734;DHT22;10018;51.230;7.860;2023-04-01T17:00:37;10.30;99.90
19734;DHT22;10018;51.230;7.860;2023-04-01T17:11:16;10.30;99.90
19734;DHT22;10018;51.230;7.860;2023-04-01T17:13:57;10.30;99.90
19734;DHT22;10018;51.230;7.860;2023-04-01T17:30:02;10.20;99.90
19734;DHT22;10018;51.230;7.860;2023-04-01T17:46:56;10.20;99.90
19734;DHT22;10018;51.230;7.860;2023-04-01T17:58:01;10.00;99.90
19734;DHT22;10018;51.230;7.860;2023-04-01T18:08:26;10.00;99.90
19734;DHT22;10018;51.230;7.860;2023-04-01T18:19:51;10.00;99.90
19734;DHT22;10018;51.230;7.860;2023-04-01T18:25:01;10.00;99.90
19734;DHT22;10018;51.230;7.860;2023-04-01T18:27:38;9.90;99.90
19734;DHT22;10018;51.230;7.860;2023-04-01T18:32:53;10.00;99.90
19734;DHT22;10018;51.230;7.860;2023-04-01T18:38:13;9.90;99.90
19734;DHT22;10018;51.230;7.860;2023-04-01T18:40:58;9.90;99.90
19734;DHT22;10018;51.230;7.860;2023-04-01T18:43:40;9.80;99.90
19734;DHT22;10018;51.230;7.860;2023-04-01T18:46:19;9.90;99.90
19734;DHT22;10018;51.230;7.860;2023-04-01T18:51:46;9.90;99.90
19734;DHT22;10018;51.230;7.860;2023-04-01T18:54:22;9.90;99.90
19734;DHT22;10018;51.230;7.860;2023-04-01T18:56:49;9.90;99.90
19734;DHT22;10018;51.230;7.860;2023-04-01T18:59:24;9.80;99.90
19734;DHT22;10018;51.230;7.860;2023-04-01T19:02:00;9.80;99.90
19734;DHT22;10018;51.230;7.860;2023-04-01T19:05:11;9.80;99.90
19734;DHT22;10018;51.230;7.860;2023-04-01T19:38:20;9.80;99.90
19734;DHT22;10018;51.230;7.860;2023-04-01T19:41:22;9.70;99.90
19734;DHT22;10018;51.230;7.860;2023-04-01T19:52:35;9.60;99.90
19734;DHT22;10018;51.230;7.860;2023-04-01T19:58:16;9.60;99.90
19734;DHT22;10018;51.230;7.860;2023-04-01T20:00:47;9.60;99.90
19734;DHT22;10018;51.230;7.860;2023-04-01T20:03:38;9.60;99.90
19734;DHT22;10018;51.230;7.860;2023-04-01T20:17:11;9.60;99.90
19734;DHT22;10018;51.230;7.860;2023-04-01T20:25:26;9.60;99.90
19734;DHT22;10018;51.230;7.860;2023-04-01T20:28:09;9.60;99.90
19734;DHT22;10018;51.230;7.860;2023-04-01T20:30:55;9.60;99.90
19734;DHT22;10018;51.230;7.860;2023-04-01T20:41:40;9.60;99.90
19734;DHT22;10018;51.230;7.860;2023-04-01T20:44:39;9.60;99.90
19734;DHT22;10018;51.230;7.860;2023-04-01T20:47:24;9.60;99.90
19734;DHT22;10018;51.230;7.860;2023-04-01T20:58:12;9.60;99.90
19734;DHT22;10018;51.230;7.860;2023-04-01T21:00:45;9.60;99.90
19734;DHT22;10018;51.230;7.860;2023-04-01T21:22:56;9.50;99.90
19734;DHT22;10018;51.230;7.860;2023-04-01T21:31:15;9.40;99.90
19734;DHT22;10018;51.230;7.860;2023-04-01T21:33:50;9.40;99.90
19734;DHT22;10018;51.230;7.860;2023-04-01T21:39:51;9.50;99.90
19734;DHT22;10018;51.230;7.860;2023-04-01T21:47:44;9.40;99.90
19734;DHT22;10018;51.230;7.860;2023-04-01T21:50:35;9.40;99.90
19734;DHT22;10018;51.230;7.860;2023-04-01T22:05:02;9.40;99.90
19734;DHT22;10018;51.230;7.860;2023-04-01T22:10:48;9.40;99.90
19734;DHT22;10018;51.230;7.860;2023-04-01T22:13:39;9.50;99.90
19734;DHT22;10018;51.230;7.860;2023-04-01T22:22:01;9.50;99.90
19734;DHT22;10018;51.230;7.860;2023-04-01T22:27:28;9.50;99.90
19734;DHT22;10018;51.230;7.860;2023-04-01T22:35:17;9.50;99.90
19734;DHT22;10018;51.230;7.860;2023-04-01T22:38:00;9.50;99.90
19734;DHT22;10018;51.230;7.860;2023-04-01T22:40:39;9.40;99.90
19734;DHT22;10018;51.230;7.860;2023-04-01T22:43:21;9.40;99.90
19734;DHT22;10018;51.230;7.860;2023-04-01T22:46:15;9.40;99.90
19734;DHT22;10018;51.230;7.860;2023-04-01T22:48:47;9.40;99.90
19734;DHT22;10018;51.230;7.860;2023-04-01T22:56:45;9.40;99.90
19734;DHT22;10018;51.230;7.860;2023-04-01T22:59:24;9.40;99.90
19734;DHT22;10018;51.230;7.860;2023-04-01T23:01:57;9.40;99.90
19734;DHT22;10018;51.230;7.860;2023-04-01T23:04:31;9.40;99.90
19734;DHT22;10018;51.230;7.860;2023-04-01T23:07:00;9.40;99.90
19734;DHT22;10018;51.230;7.860;2023-04-01T23:09:33;9.40;99.90
19734;DHT22;10018;51.230;7.860;2023-04-01T23:12:05;9.40;99.90
19734;DHT22;10018;51.230;7.860;2023-04-01T23:14:54;9.40;99.90
19734;DHT22;10018;51.230;7.860;2023-04-01T23:17:47;9.30;99.90
19734;DHT22;10018;51.230;7.860;2023-04-01T23:36:10;9.40;99.90
19734;DHT22;10018;51.230;7.860;2023-04-01T23:38:39;9.40;99.90
19734;DHT22;10018;51.230;7.860;2023-04-01T23:41:09;9.40;99.90
19734;DHT22;10018;51.230;7.860;2023-04-01T23:43:43;9.30;99.90
19734;DHT22;10018;51.230;7.860;2023-04-01T23:46:09;9.40;99.90
19734;DHT22;10018;51.230;7.860;2023-04-01T23:48:40;9.40;99.90
19734;DHT22;10018;51.230;7.860;2023-04-01T23:51:25;9.40;99.90
19734;DHT22;10018;51.230;7.860;2023-04-01T23:54:03;9.40;99.90
19734;DHT22;10018;51.230;7.860;2023-04-01T23:56:46;9.40;99.90
19734;DHT22;10018;51.230;7.860;2023-04-01T23:59:18;9.30;99.90
